Latest Coastal Weather Observations for Cato Island

IDQ60701

Issued at 3:51 pm EST Wednesday 27 May 2015 (issued every 10 minutes, with the page automatically refreshed every 10 minutes)

About coastal observations | Map of coastal stations | Coastal observations for QLD | Marine services | Other Formats
Station Details ID: 200601 Name: CATO ISLAND Lat: -23.25 Lon: 155.54 Height: 6.3 m
Data from the previous 72 hours. | See also: Recent months for locations in Queensland
Date/Time
EST
Temp

°C
Wind Pressure Rain
since 9am
mm
Weather Cloud Vis
km
Sea
Height
m
Swell
Dir
 
Speed
knots
Gust
knots
hPa Trend Height
m
Period
s
Dir
27/03:30pm 23.3 ESE 15 17 1019.6 - - - - - - - - -
27/03:00pm 23.1 ESE 15 18 1019.5 - - - - - - - - -
27/02:30pm 23.4 ESE 14 17 1019.3 - - - - - - - - -
27/02:00pm 23.2 ESE 15 18 1019.6 - - - - - - - - -
27/01:30pm 23.5 ESE 14 15 1019.7 - - - - - - - - -
27/01:00pm 23.7 ESE 14 17 1019.8 - - - - - - - - -
27/12:30pm 23.5 ESE 14 16 1020.1 - - - - - - - - -
27/12:00pm 23.1 ESE 14 16 1020.6 - - - - - - - - -
27/11:30am 23.5 ESE 14 18 1021.3 - - - - - - - - -
27/11:00am 23.4 ESE 15 19 1021.4 - - - - - - - - -
27/10:30am 23.5 ESE 15 17 1021.8 - - - - - - - - -
27/10:00am 23.4 ESE 16 19 1022.0 - - - - - - - - -
27/09:30am 23.3 ESE 16 19 1022.1 - - - - - - - - -
27/09:00am 23.1 ESE 17 20 1022.0 - - - - - - - - -
27/08:30am 23.0 ESE 17 20 1021.7 - - - - - - - - -
27/08:00am 23.0 ESE 18 21 1021.5 - - - - - - - - -
27/07:30am 22.8 ESE 17 20 1021.3 - - - - - - - - -
27/07:00am 22.7 ESE 16 19 1021.2 - - - - - - - - -
27/06:30am 22.7 ESE 16 19 1020.9 - - - - - - - - -
27/06:00am 22.6 ESE 15 19 1020.8 - - - - - - - - -
27/05:30am 22.5 ESE 16 19 1020.6 - - - - - - - - -
27/05:00am 22.6 E 16 19 1020.1 - - - - - - - - -
27/04:30am 22.6 E 17 19 1020.1 - - - - - - - - -
27/04:00am 22.5 E 18 21 1020.0 - - - - - - - - -
27/03:30am 22.6 ESE 18 21 1020.0 - - - - - - - - -
27/03:00am 21.4 E 17 22 1020.4 - - - - - - - - -
27/02:38am 20.6 ESE 15 23 1020.7 - - - - - - - - -
27/02:30am 20.7 ENE 4 6 1020.8 - - - - - - - - -
27/02:00am 20.7 ENE 13 16 1020.8 - - - - - - - - -
27/01:30am 20.2 ENE 7 9 1021.4 - - - - - - - - -
27/01:00am 20.7 ENE 13 18 1021.5 - - - - - - - - -
27/12:30am 20.7 NE 10 12 1022.0 - - - - - - - - -
27/12:00am 20.2 ENE 10 17 1022.0 - - - - - - - - -
 
Date/Time
EST
Temp

°C
Wind Pressure Rain
since 9am
mm
Weather Cloud Vis
km
Sea
Height
m
Swell
Dir
 
Speed
knots
Gust
knots
hPa Trend Height
m
Period
s
Dir
26/11:30pm 20.4 NNE 18 23 1022.2 - - - - - - - - -
26/11:14pm 21.1 NE 17 24 1022.3 - - - - - - - - -
26/11:05pm 21.5 E 21 24 1022.1 - - - - - - - - -
26/11:00pm 22.0 ENE 18 24 1022.2 - - - - - - - - -
26/10:30pm 22.9 E 17 20 1022.2 - - - - - - - - -
26/10:00pm 22.9 ESE 16 18 1022.5 - - - - - - - - -
26/09:30pm 22.6 ESE 13 16 1022.7 - - - - - - - - -
26/09:00pm 22.5 ESE 15 17 1022.8 - - - - - - - - -
26/08:30pm 22.5 ESE 16 19 1022.6 - - - - - - - - -
26/08:00pm 22.5 E 14 17 1022.7 - - - - - - - - -
26/07:30pm 22.3 E 17 19 1022.5 - - - - - - - - -
26/07:00pm 22.6 E 15 19 1022.3 - - - - - - - - -
26/06:30pm 22.6 E 15 17 1022.0 - - - - - - - - -
26/06:00pm 22.5 ESE 17 20 1021.6 - - - - - - - - -
26/05:30pm 22.9 ESE 16 20 1021.5 - - - - - - - - -
26/05:00pm 22.9 ESE 15 18 1021.3 - - - - - - - - -
26/04:30pm 23.0 ESE 16 19 1021.1 - - - - - - - - -
26/04:00pm 23.1 ESE 16 19 1021.2 - - - - - - - - -
26/03:30pm 23.1 ESE 17 20 1021.4 - - - - - - - - -
26/03:00pm 23.1 ESE 18 21 1021.0 - - - - - - - - -
26/02:30pm 23.2 ESE 16 19 1021.3 - - - - - - - - -
26/02:00pm 23.4 ESE 16 19 1021.5 - - - - - - - - -
26/01:30pm 23.7 E 17 19 1021.5 - - - - - - - - -
26/01:00pm 23.4 E 17 22 1021.6 - - - - - - - - -
26/12:30pm 23.5 E 19 23 1021.9 - - - - - - - - -
26/12:00pm 23.6 E 19 22 1022.5 - - - - - - - - -
26/11:30am 23.3 ESE 15 18 1022.9 - - - - - - - - -
26/11:00am 22.8 E 16 20 1023.5 - - - - - - - - -
26/10:30am 22.4 E 19 23 1024.0 - - - - - - - - -
26/10:02am 22.3 E 21 31 1024.2 - - - - - - - - -
26/10:00am 22.5 E 20 29 1024.3 - - - - - - - - -
26/09:30am 21.1 ESE 22 27 1024.8 - - - - - - - - -
26/09:27am 21.3 ESE 22 27 1024.8 - - - - - - - - -
26/09:00am 22.1 E 21 24 1025.4 - - - - - - - - -
26/08:58am 21.6 E 21 25 1025.4 - - - - - - - - -
26/08:30am 21.9 ESE 23 28 1025.4 - - - - - - - - -
26/08:00am 22.1 E 21 25 1025.0 - - - - - - - - -
26/07:30am 22.2 E 24 28 1024.6 - - - - - - - - -
26/07:00am 22.3 E 21 24 1024.3 - - - - - - - - -
26/06:30am 22.5 ESE 20 22 1024.1 - - - - - - - - -
26/06:00am 21.9 E 19 22 1023.8 - - - - - - - - -
26/05:30am 22.2 ESE 22 27 1023.3 - - - - - - - - -
26/05:00am 22.6 E 20 23 1023.1 - - - - - - - - -
26/04:30am 22.5 ESE 20 23 1023.1 - - - - - - - - -
26/04:00am 22.5 ESE 18 22 1023.3 - - - - - - - - -
26/03:30am 22.5 ESE 22 25 1023.3 - - - - - - - - -
26/03:00am 22.8 ESE 22 26 1023.3 - - - - - - - - -
26/02:30am 22.7 ESE 19 23 1023.7 - - - - - - - - -
26/02:00am 22.9 ESE 19 22 1024.0 - - - - - - - - -
26/01:30am 22.9 ESE 19 22 1024.3 - - - - - - - - -
26/01:00am 22.9 ESE 20 24 1024.1 - - - - - - - - -
26/12:30am 22.9 ESE 20 23 1024.5 - - - - - - - - -
26/12:00am 23.0 ESE 20 23 1024.5 - - - - - - - - -
 
Date/Time
EST
Temp

°C
Wind Pressure Rain
since 9am
mm
Weather Cloud Vis
km
Sea
Height
m
Swell
Dir
 
Speed
knots
Gust
knots
hPa Trend Height
m
Period
s
Dir
25/11:30pm 22.9 ESE 20 23 1024.4 - - - - - - - - -
25/11:00pm 22.8 ESE 21 25 1024.5 - - - - - - - - -
25/10:30pm 22.9 ESE 21 25 1024.6 - - - - - - - - -
25/10:00pm 22.9 ESE 20 23 1024.7 - - - - - - - - -
25/09:30pm 22.8 ESE 20 24 1024.7 - - - - - - - - -
25/09:00pm 22.7 ESE 20 23 1024.9 - - - - - - - - -
25/08:30pm 22.9 ESE 21 24 1024.9 - - - - - - - - -
25/08:00pm 22.7 ESE 21 24 1024.9 - - - - - - - - -
25/07:30pm 22.9 ESE 21 24 1024.9 - - - - - - - - -
25/07:00pm 22.9 ESE 21 25 1024.6 - - - - - - - - -
25/06:30pm 22.9 ESE 20 25 1024.5 - - - - - - - - -
25/06:00pm 22.9 ESE 20 24 1024.4 - - - - - - - - -
25/05:30pm 22.9 ESE 19 24 1024.3 - - - - - - - - -
25/05:00pm 22.9 ESE 20 23 1023.9 - - - - - - - - -
25/04:30pm 22.9 ESE 20 24 1023.9 - - - - - - - - -
25/04:00pm 23.0 ESE 21 25 1023.8 - - - - - - - - -
25/03:30pm 23.0 ESE 21 24 1023.4 - - - - - - - - -
25/03:00pm 23.0 ESE 20 25 1023.2 - - - - - - - - -
25/02:30pm 23.3 ESE 20 24 1023.2 - - - - - - - - -
25/02:00pm 23.4 ESE 21 25 1023.3 - - - - - - - - -
25/01:30pm 23.4 ESE 20 23 1023.7 - - - - - - - - -
25/01:00pm 23.6 ESE 21 25 1023.8 - - - - - - - - -
25/12:30pm 23.3 ESE 21 25 1024.1 - - - - - - - - -
25/12:00pm 23.3 ESE 22 26 1024.5 - - - - - - - - -
25/11:30am 23.3 ESE 22 25 1024.9 - - - - - - - - -
25/11:00am 23.4 ESE 22 27 1025.2 - - - - - - - - -
25/10:30am 23.3 ESE 23 27 1025.5 - - - - - - - - -
25/10:00am 23.2 ESE 23 26 1025.6 - - - - - - - - -
25/09:30am 23.2 ESE 23 27 1026.0 - - - - - - - - -
25/09:00am 23.4 ESE 21 26 1026.4 - - - - - - - - -
25/08:30am 23.2 ESE 20 23 1026.2 - - - - - - - - -
25/08:00am 23.0 ESE 21 25 1025.9 - - - - - - - - -
25/07:30am 23.0 ESE 23 27 1025.5 - - - - - - - - -
25/07:00am 22.9 ESE 23 29 1025.2 - - - - - - - - -
25/06:30am 22.6 ESE 24 27 1024.8 - - - - - - - - -
25/06:00am 22.7 ESE 22 26 1025.1 - - - - - - - - -
25/05:58am 22.5 ESE 23 26 1025.1 - - - - - - - - -
25/05:30am 21.3 E 23 27 1025.0 - - - - - - - - -
25/05:20am 22.0 E 22 30 1024.8 - - - - - - - - -
25/05:00am 22.4 ESE 23 26 1024.4 - - - - - - - - -
25/04:30am 22.5 ESE 25 30 1024.2 - - - - - - - - -
25/04:00am 22.8 ESE 25 29 1023.8 - - - - - - - - -
25/03:30am 22.6 ESE 25 28 1023.8 - - - - - - - - -
25/03:00am 22.4 ESE 25 28 1023.8 - - - - - - - - -
25/02:50am 21.6 ESE 22 32 1023.8 - - - - - - - - -
25/02:30am 22.8 ESE 24 28 1023.8 - - - - - - - - -
25/02:00am 22.9 ESE 22 27 1024.1 - - - - - - - - -
25/01:30am 22.5 ESE 21 25 1024.6 - - - - - - - - -
25/01:00am 22.4 ESE 22 27 1024.8 - - - - - - - - -
25/12:30am 22.6 ESE 23 27 1024.7 - - - - - - - - -
25/12:00am 22.6 ESE 25 29 1024.7 - - - - - - - - -
 
Date/Time
EST
Temp

°C
Wind Pressure Rain
since 9am
mm
Weather Cloud Vis
km
Sea
Height
m
Swell
Dir
 
Speed
knots
Gust
knots
hPa Trend Height
m
Period
s
Dir
24/11:30pm 22.5 ESE 25 29 1024.8 - - - - - - - - -
24/11:00pm 22.6 SE 27 31 1024.9 - - - - - - - - -
24/10:30pm 22.7 SE 26 32 1024.9 - - - - - - - - -
24/10:20pm 22.7 SE 24 29 1024.8 - - - - - - - - -
24/10:00pm 21.6 SSE 16 18 1025.0 - - - - - - - - -
24/09:30pm 21.9 SE 25 30 1024.9 - - - - - - - - -
24/09:00pm 22.5 SE 23 30 1024.8 - - - - - - - - -
24/08:30pm 22.1 SE 26 36 1024.5 - - - - - - - - -
24/08:29pm 22.6 SE 25 36 1024.5 - - - - - - - - -
24/08:00pm 22.6 ESE 25 28 1024.3 - - - - - - - - -
24/07:30pm 22.8 ESE 25 29 1024.2 - - - - - - - - -
24/07:00pm 21.8 ESE 24 31 1024.1 - - - - - - - - -
24/06:30pm 22.7 SE 26 30 1023.6 - - - - - - - - -
24/06:00pm 22.7 SE 24 28 1023.4 - - - - - - - - -
24/05:30pm 22.8 ESE 25 29 1023.2 - - - - - - - - -
24/05:00pm 22.7 ESE 24 30 1023.0 - - - - - - - - -
24/04:30pm 22.9 ESE 24 28 1022.8 - - - - - - - - -
24/04:00pm 23.0 SE 24 27 1022.5 - - - - - - - - -

Other Formats:

Comma delimited format used in spreadsheet applications
http://www.bom.gov.au/fwo/IDQ60701/IDQ60701.94394.axf

JavaScript Object Notation format (JSON) in row-major order
http://www.bom.gov.au/fwo/IDQ60701/IDQ60701.94394.json